createdAt,value
2019-05-21T00:01:35.898Z,93630.60
2019-05-21T00:04:02.438Z,93630.50
2019-05-21T00:06:29.065Z,93632.13
2019-05-21T00:08:55.592Z,93640.83
2019-05-21T00:11:22.108Z,93640.44
2019-05-21T00:13:48.640Z,93629.70
2019-05-21T00:16:15.158Z,93632.86
2019-05-21T00:18:41.708Z,93631.05
2019-05-21T00:21:08.325Z,93623.05
2019-05-21T00:23:34.850Z,93629.09
2019-05-21T00:26:01.368Z,93628.47
2019-05-21T00:28:37.186Z,93620.28
2019-05-21T00:32:00.093Z,93619.77
2019-05-21T00:35:24.898Z,93624.05
2019-05-21T00:38:47.839Z,93620.08
2019-05-21T00:42:04.779Z,93624.08
2019-05-21T00:44:41.169Z,93626.12
2019-05-21T00:47:10.453Z,93630.84
2019-05-21T00:49:36.985Z,93620.30
2019-05-21T00:52:08.584Z,93623.04
2019-05-21T00:54:33.142Z,93617.02
2019-05-21T00:56:59.892Z,93628.70
2019-05-21T00:59:26.431Z,93630.04
2019-05-21T01:01:52.964Z,93623.58
2019-05-21T01:04:19.580Z,93628.38
2019-05-21T01:06:46.121Z,93635.27
2019-05-21T01:09:12.686Z,93628.80
2019-05-21T01:11:39.247Z,93639.45
2019-05-21T01:14:06.792Z,93624.51
2019-05-21T01:16:33.331Z,93629.21
2019-05-21T01:19:00.056Z,93624.70
2019-05-21T01:21:26.696Z,93634.23
2019-05-21T01:23:53.226Z,93623.89
2019-05-21T01:26:19.768Z,93628.30
2019-05-21T01:28:46.396Z,93624.62
2019-05-21T01:31:12.941Z,93624.20
2019-05-21T01:33:39.473Z,93630.04
2019-05-21T01:36:06.034Z,93631.70
2019-05-21T01:38:32.567Z,93629.75
2019-05-21T01:40:59.212Z,93633.22
2019-05-21T01:43:25.764Z,93625.45
2019-05-21T01:45:52.312Z,93623.20
2019-05-21T01:48:18.916Z,93624.43
2019-05-21T01:50:45.477Z,93623.40
2019-05-21T01:53:12.075Z,93621.77
2019-05-21T01:55:38.714Z,93623.30
2019-05-21T01:58:05.347Z,93621.44
2019-05-21T02:00:32.001Z,93617.97
2019-05-21T02:02:58.536Z,93625.66
2019-05-21T02:05:32.909Z,93618.61
2019-05-21T02:07:53.527Z,93617.05
2019-05-21T02:10:20.082Z,93618.71
2019-05-21T02:12:46.617Z,93626.37
2019-05-21T02:15:13.251Z,93629.25
2019-05-21T02:17:39.806Z,93631.58
2019-05-21T02:20:06.770Z,93620.94
2019-05-21T02:22:33.343Z,93620.13
2019-05-21T02:24:59.886Z,93628.11
2019-05-21T02:27:26.431Z,93625.86
2019-05-21T02:29:53.062Z,93619.42
2019-05-21T02:32:19.614Z,93619.20
2019-05-21T02:34:46.146Z,93627.08
2019-05-21T02:37:12.690Z,93626.08
2019-05-21T02:39:39.229Z,93625.16
2019-05-21T02:42:05.888Z,93620.95
2019-05-21T02:44:32.436Z,93627.01
2019-05-21T02:46:58.984Z,93626.49
2019-05-21T02:49:25.523Z,93619.73
2019-05-21T02:51:52.077Z,93629.34
2019-05-21T02:54:18.610Z,93631.30
2019-05-21T02:56:45.166Z,93627.83
2019-05-21T02:59:11.777Z,93631.49
2019-05-21T03:01:46.323Z,93623.63
2019-05-21T03:04:12.850Z,93620.25
2019-05-21T03:06:39.480Z,93623.11
2019-05-21T03:09:06.113Z,93631.80
2019-05-21T03:11:32.765Z,93625.06
2019-05-21T03:13:59.308Z,93633.86
2019-05-21T03:16:25.841Z,93632.02
2019-05-21T03:18:52.397Z,93635.08
2019-05-21T03:21:18.938Z,93637.04
2019-05-21T03:23:45.473Z,93638.15
2019-05-21T03:26:12.011Z,93641.84
2019-05-21T03:28:38.589Z,93640.19
2019-05-21T03:31:05.140Z,93648.16
2019-05-21T03:33:31.677Z,93643.69
2019-05-21T03:35:58.329Z,93650.23
2019-05-21T03:38:25.034Z,93647.67
2019-05-21T03:40:51.574Z,93648.09
2019-05-21T03:43:18.123Z,93646.23
2019-05-21T03:45:44.643Z,93651.05
2019-05-21T03:48:11.182Z,93645.72
2019-05-21T03:50:37.713Z,93648.09
2019-05-21T03:53:04.364Z,93646.53
2019-05-21T03:55:30.872Z,93664.53
2019-05-21T03:57:57.423Z,93662.72
2019-05-21T04:00:24.079Z,93671.19
2019-05-21T04:02:50.592Z,93663.42
2019-05-21T04:05:23.384Z,93670.38
2019-05-21T04:07:50.213Z,93674.36
2019-05-21T04:10:16.946Z,93662.39
2019-05-21T04:12:45.396Z,93669.56
2019-05-21T04:15:20.052Z,93673.25
2019-05-21T04:18:00.568Z,93663.94
2019-05-21T04:20:27.099Z,93665.05
2019-05-21T04:22:53.639Z,93672.11
2019-05-21T04:25:21.475Z,93669.77
2019-05-21T04:27:48.084Z,93666.27
2019-05-21T04:30:14.740Z,93676.61
2019-05-21T04:32:41.336Z,93674.17
2019-05-21T04:35:08.089Z,93677.13
2019-05-21T04:37:34.621Z,93676.91
2019-05-21T04:40:01.188Z,93692.06
2019-05-21T04:42:27.714Z,93689.09
2019-05-21T04:44:54.392Z,93686.62
2019-05-21T04:47:20.972Z,93690.31
2019-05-21T04:49:47.499Z,93683.48
2019-05-21T04:52:14.045Z,93696.97
2019-05-21T04:54:40.586Z,93692.98
2019-05-21T04:57:07.228Z,93687.47
2019-05-21T04:59:33.823Z,93689.17
2019-05-21T05:02:00.350Z,93712.63
2019-05-21T05:04:26.916Z,93697.78
2019-05-21T05:06:53.465Z,93710.12
2019-05-21T05:09:19.990Z,93702.47
2019-05-21T05:11:46.615Z,93697.56
2019-05-21T05:14:13.349Z,93701.55
2019-05-21T05:16:39.873Z,93699.59
2019-05-21T05:19:06.453Z,93708.60
2019-05-21T05:21:32.976Z,93706.23
2019-05-21T05:23:59.513Z,93697.33
2019-05-21T05:26:26.053Z,93692.20
2019-05-21T05:28:52.800Z,93692.72
2019-05-21T05:31:19.339Z,93702.53
2019-05-21T05:33:45.879Z,93702.75
2019-05-21T05:36:12.401Z,93711.03
2019-05-21T05:38:39.646Z,93718.09
2019-05-21T05:41:06.187Z,93704.09
2019-05-21T05:43:32.848Z,93709.70
2019-05-21T05:45:59.375Z,93696.19
2019-05-21T05:48:27.175Z,93696.41
2019-05-21T05:50:58.269Z,93699.06
2019-05-21T05:53:24.793Z,93696.41
2019-05-21T05:55:51.444Z,93685.06
2019-05-21T05:58:18.128Z,93687.39
2019-05-21T06:00:44.927Z,93697.22
2019-05-21T06:03:11.669Z,93695.89
2019-05-21T06:05:38.558Z,93694.38
2019-05-21T06:08:05.305Z,93693.34
2019-05-21T06:10:31.987Z,93695.08
2019-05-21T06:12:58.694Z,93690.06
2019-05-21T06:15:25.399Z,93684.55
2019-05-21T06:17:52.087Z,93677.83
2019-05-21T06:20:19.946Z,93686.14
2019-05-21T06:22:46.606Z,93693.49
2019-05-21T06:25:15.168Z,93689.58
2019-05-21T06:27:41.759Z,93700.30
2019-05-21T06:30:09.867Z,93693.16
2019-05-21T06:32:36.437Z,93693.05
2019-05-21T06:35:04.677Z,93709.83
2019-05-21T06:37:31.204Z,93710.23
2019-05-21T06:39:57.746Z,93716.47
2019-05-21T06:42:24.297Z,93722.30
2019-05-21T06:44:51.034Z,93709.20
2019-05-21T06:47:17.669Z,93720.47
2019-05-21T06:49:44.555Z,93719.28
2019-05-21T06:52:11.215Z,93719.39
2019-05-21T06:54:37.860Z,93715.41
2019-05-21T06:57:04.749Z,93718.44
2019-05-21T06:59:31.499Z,93712.92
2019-05-21T07:01:58.157Z,93734.28
2019-05-21T07:04:24.836Z,93722.42
2019-05-21T07:06:51.603Z,93721.02
2019-05-21T07:09:18.361Z,93732.29
2019-05-21T07:11:45.168Z,93726.23
2019-05-21T07:14:12.069Z,93721.03
2019-05-21T07:16:38.964Z,93723.58
2019-05-21T07:19:05.779Z,93725.12
2019-05-21T07:21:32.938Z,93733.81
2019-05-21T07:23:59.981Z,93732.81
2019-05-21T07:26:27.718Z,93737.80
2019-05-21T07:28:56.394Z,93742.94
2019-05-21T07:31:23.817Z,93741.09
2019-05-21T07:33:50.613Z,93738.32
2019-05-21T07:36:17.343Z,93738.44
2019-05-21T07:38:53.436Z,93744.78
2019-05-21T07:41:12.910Z,93749.78
2019-05-21T07:43:39.543Z,93752.33
2019-05-21T07:46:06.389Z,93749.88
2019-05-21T07:48:33.268Z,93756.23
2019-05-21T07:50:59.914Z,93757.69
2019-05-21T07:53:26.841Z,93746.02
2019-05-21T07:55:53.857Z,93750.42
2019-05-21T07:58:21.100Z,93765.79
2019-05-21T12:45:58.733Z,93765.79
2019-05-21T12:48:25.278Z,93765.79
2019-05-21T12:50:51.832Z,94004.01
2019-05-21T12:53:18.386Z,94004.94
2019-05-21T12:55:45.097Z,94014.06
2019-05-21T12:59:35.368Z,114330.81
2019-05-21T13:14:08.924Z,114330.81
